sensor_id;sensor_type;location;lat;lon;timestamp;temperature;humidity
18613;DHT22;9436;52.152;21.032;2023-03-23T00:00:53;10.90;99.90
18613;DHT22;9436;52.152;21.032;2023-03-23T00:03:21;10.80;99.90
18613;DHT22;9436;52.152;21.032;2023-03-23T00:05:51;10.90;99.90
18613;DHT22;9436;52.152;21.032;2023-03-23T00:08:19;10.90;99.90
18613;DHT22;9436;52.152;21.032;2023-03-23T00:10:48;10.80;99.90
18613;DHT22;9436;52.152;21.032;2023-03-23T00:13:18;10.80;99.90
18613;DHT22;9436;52.152;21.032;2023-03-23T00:15:46;10.80;99.90
18613;DHT22;9436;52.152;21.032;2023-03-23T00:18:14;10.80;99.90
18613;DHT22;9436;52.152;21.032;2023-03-23T00:20:47;10.80;99.90
18613;DHT22;9436;52.152;21.032;2023-03-23T00:23:15;10.80;99.90
18613;DHT22;9436;52.152;21.032;2023-03-23T00:25:46;10.80;99.90
18613;DHT22;9436;52.152;21.032;2023-03-23T00:28:14;10.80;99.90
18613;DHT22;9436;52.152;21.032;2023-03-23T00:30:42;10.80;99.90
18613;DHT22;9436;52.152;21.032;2023-03-23T00:33:11;10.80;99.90
18613;DHT22;9436;52.152;21.032;2023-03-23T00:35:40;10.80;99.90
18613;DHT22;9436;52.152;21.032;2023-03-23T00:38:07;10.70;99.90
18613;DHT22;9436;52.152;21.032;2023-03-23T00:40:35;10.70;99.90
18613;DHT22;9436;52.152;21.032;2023-03-23T00:43:04;10.70;99.90
18613;DHT22;9436;52.152;21.032;2023-03-23T00:45:31;10.70;99.90
18613;DHT22;9436;52.152;21.032;2023-03-23T00:48:00;10.70;99.90
18613;DHT22;9436;52.152;21.032;2023-03-23T00:50:30;10.80;99.90
18613;DHT22;9436;52.152;21.032;2023-03-23T00:52:57;10.90;99.90
18613;DHT22;9436;52.152;21.032;2023-03-23T00:55:24;10.90;99.90
18613;DHT22;9436;52.152;21.032;2023-03-23T00:57:51;10.90;99.90
18613;DHT22;9436;52.152;21.032;2023-03-23T01:00:21;10.90;99.90
18613;DHT22;9436;52.152;21.032;2023-03-23T01:02:49;10.90;99.90
18613;DHT22;9436;52.152;21.032;2023-03-23T01:05:17;11.00;99.90
18613;DHT22;9436;52.152;21.032;2023-03-23T01:07:44;11.10;99.90
18613;DHT22;9436;52.152;21.032;2023-03-23T01:10:12;11.00;99.90
18613;DHT22;9436;52.152;21.032;2023-03-23T01:12:42;11.00;99.90
18613;DHT22;9436;52.152;21.032;2023-03-23T01:15:12;11.00;99.90
18613;DHT22;9436;52.152;21.032;2023-03-23T01:17:41;11.00;99.90
18613;DHT22;9436;52.152;21.032;2023-03-23T01:20:08;11.00;99.90
18613;DHT22;9436;52.152;21.032;2023-03-23T01:22:36;11.10;99.90
18613;DHT22;9436;52.152;21.032;2023-03-23T01:25:03;11.00;99.90
18613;DHT22;9436;52.152;21.032;2023-03-23T01:27:31;11.00;99.90
18613;DHT22;9436;52.152;21.032;2023-03-23T01:29:58;11.10;99.90
18613;DHT22;9436;52.152;21.032;2023-03-23T01:32:25;11.20;99.90
18613;DHT22;9436;52.152;21.032;2023-03-23T01:34:54;11.10;99.90
18613;DHT22;9436;52.152;21.032;2023-03-23T01:37:21;11.10;99.90
18613;DHT22;9436;52.152;21.032;2023-03-23T01:39:52;11.10;99.90
18613;DHT22;9436;52.152;21.032;2023-03-23T01:42:21;11.10;99.90
18613;DHT22;9436;52.152;21.032;2023-03-23T01:45:26;11.00;99.90
18613;DHT22;9436;52.152;21.032;2023-03-23T01:48:00;11.00;99.90
18613;DHT22;9436;52.152;21.032;2023-03-23T01:50:32;10.90;99.90
18613;DHT22;9436;52.152;21.032;2023-03-23T01:53:02;10.90;99.90
18613;DHT22;9436;52.152;21.032;2023-03-23T01:55:31;10.90;99.90
18613;DHT22;9436;52.152;21.032;2023-03-23T01:57:59;10.80;99.90
18613;DHT22;9436;52.152;21.032;2023-03-23T02:00:26;10.80;99.90
18613;DHT22;9436;52.152;21.032;2023-03-23T02:02:54;10.80;99.90
18613;DHT22;9436;52.152;21.032;2023-03-23T02:05:26;10.70;99.90
18613;DHT22;9436;52.152;21.032;2023-03-23T02:07:59;10.70;99.90
18613;DHT22;9436;52.152;21.032;2023-03-23T02:10:29;10.70;99.90
18613;DHT22;9436;52.152;21.032;2023-03-23T02:12:56;10.60;99.90
18613;DHT22;9436;52.152;21.032;2023-03-23T02:15:25;10.70;99.90
18613;DHT22;9436;52.152;21.032;2023-03-23T02:17:57;10.60;99.90
18613;DHT22;9436;52.152;21.032;2023-03-23T02:20:50;10.60;99.90
18613;DHT22;9436;52.152;21.032;2023-03-23T02:23:47;10.60;99.90
18613;DHT22;9436;52.152;21.032;2023-03-23T02:26:43;10.60;99.90
18613;DHT22;9436;52.152;21.032;2023-03-23T02:32:31;10.60;99.90
18613;DHT22;9436;52.152;21.032;2023-03-23T02:35:06;10.60;99.90
18613;DHT22;9436;52.152;21.032;2023-03-23T02:37:37;10.60;99.90
18613;DHT22;9436;52.152;21.032;2023-03-23T02:40:11;10.60;99.90
18613;DHT22;9436;52.152;21.032;2023-03-23T02:42:40;10.60;99.90
18613;DHT22;9436;52.152;21.032;2023-03-23T02:45:11;10.60;99.90
18613;DHT22;9436;52.152;21.032;2023-03-23T02:47:39;10.60;99.90
18613;DHT22;9436;52.152;21.032;2023-03-23T02:50:11;10.70;99.90
18613;DHT22;9436;52.152;21.032;2023-03-23T02:52:41;10.70;99.90
18613;DHT22;9436;52.152;21.032;2023-03-23T02:55:10;10.70;99.90
18613;DHT22;9436;52.152;21.032;2023-03-23T02:57:40;10.70;99.90
18613;DHT22;9436;52.152;21.032;2023-03-23T03:00:11;10.80;99.90
18613;DHT22;9436;52.152;21.032;2023-03-23T03:02:40;10.80;99.90
18613;DHT22;9436;52.152;21.032;2023-03-23T03:05:16;10.80;99.90
18613;DHT22;9436;52.152;21.032;2023-03-23T03:07:54;10.80;99.90
18613;DHT22;9436;52.152;21.032;2023-03-23T03:10:28;10.80;99.90
18613;DHT22;9436;52.152;21.032;2023-03-23T03:13:03;10.90;99.90
18613;DHT22;9436;52.152;21.032;2023-03-23T03:15:35;10.80;99.90
18613;DHT22;9436;52.152;21.032;2023-03-23T03:18:08;10.80;99.90
18613;DHT22;9436;52.152;21.032;2023-03-23T03:20:42;10.70;99.90
18613;DHT22;9436;52.152;21.032;2023-03-23T03:23:11;10.60;99.90
18613;DHT22;9436;52.152;21.032;2023-03-23T03:25:40;10.60;99.90
18613;DHT22;9436;52.152;21.032;2023-03-23T03:28:14;10.60;99.90
18613;DHT22;9436;52.152;21.032;2023-03-23T03:30:42;10.60;99.90
18613;DHT22;9436;52.152;21.032;2023-03-23T03:33:10;10.60;99.90
18613;DHT22;9436;52.152;21.032;2023-03-23T03:35:40;10.50;99.90
18613;DHT22;9436;52.152;21.032;2023-03-23T03:38:10;10.60;99.90
18613;DHT22;9436;52.152;21.032;2023-03-23T03:40:38;10.50;99.90
18613;DHT22;9436;52.152;21.032;2023-03-23T03:43:05;10.50;99.90
18613;DHT22;9436;52.152;21.032;2023-03-23T03:45:33;10.50;99.90
18613;DHT22;9436;52.152;21.032;2023-03-23T03:48:00;10.50;99.90
18613;DHT22;9436;52.152;21.032;2023-03-23T03:50:27;10.40;99.90
18613;DHT22;9436;52.152;21.032;2023-03-23T03:52:55;10.40;99.90
18613;DHT22;9436;52.152;21.032;2023-03-23T03:55:23;10.40;99.90
18613;DHT22;9436;52.152;21.032;2023-03-23T03:57:50;10.40;99.90
18613;DHT22;9436;52.152;21.032;2023-03-23T04:00:18;10.30;99.90
18613;DHT22;9436;52.152;21.032;2023-03-23T04:02:46;10.30;99.90
18613;DHT22;9436;52.152;21.032;2023-03-23T04:05:17;10.20;99.90
18613;DHT22;9436;52.152;21.032;2023-03-23T04:07:46;10.20;99.90
18613;DHT22;9436;52.152;21.032;2023-03-23T04:10:16;10.10;99.90
18613;DHT22;9436;52.152;21.032;2023-03-23T04:12:45;10.10;99.90
18613;DHT22;9436;52.152;21.032;2023-03-23T04:15:12;10.10;99.90
18613;DHT22;9436;52.152;21.032;2023-03-23T04:17:39;10.10;99.90
18613;DHT22;9436;52.152;21.032;2023-03-23T04:20:07;10.10;99.90
18613;DHT22;9436;52.152;21.032;2023-03-23T04:22:40;10.10;99.90
18613;DHT22;9436;52.152;21.032;2023-03-23T04:25:10;10.10;99.90
18613;DHT22;9436;52.152;21.032;2023-03-23T04:27:39;10.10;99.90
18613;DHT22;9436;52.152;21.032;2023-03-23T04:30:10;10.10;99.90
18613;DHT22;9436;52.152;21.032;2023-03-23T04:32:37;10.00;99.90
18613;DHT22;9436;52.152;21.032;2023-03-23T04:35:08;10.00;99.90
18613;DHT22;9436;52.152;21.032;2023-03-23T04:37:37;9.90;99.90
18613;DHT22;9436;52.152;21.032;2023-03-23T04:40:05;9.90;99.90
18613;DHT22;9436;52.152;21.032;2023-03-23T04:42:38;9.90;99.90
18613;DHT22;9436;52.152;21.032;2023-03-23T04:45:07;9.90;99.90
18613;DHT22;9436;52.152;21.032;2023-03-23T04:47:35;9.90;99.90
18613;DHT22;9436;52.152;21.032;2023-03-23T04:50:07;9.80;99.90
18613;DHT22;9436;52.152;21.032;2023-03-23T04:52:34;9.80;99.90
18613;DHT22;9436;52.152;21.032;2023-03-23T04:55:04;9.80;99.90
18613;DHT22;9436;52.152;21.032;2023-03-23T04:57:32;9.70;99.90
18613;DHT22;9436;52.152;21.032;2023-03-23T05:00:03;9.70;99.90
18613;DHT22;9436;52.152;21.032;2023-03-23T05:02:34;9.70;99.90
18613;DHT22;9436;52.152;21.032;2023-03-23T05:05:01;9.80;99.90
18613;DHT22;9436;52.152;21.032;2023-03-23T05:07:28;9.80;99.90
18613;DHT22;9436;52.152;21.032;2023-03-23T05:09:55;9.80;99.90
18613;DHT22;9436;52.152;21.032;2023-03-23T05:12:22;9.80;99.90
18613;DHT22;9436;52.152;21.032;2023-03-23T05:14:49;9.90;99.90
18613;DHT22;9436;52.152;21.032;2023-03-23T05:17:17;9.90;99.90
18613;DHT22;9436;52.152;21.032;2023-03-23T05:19:44;9.90;99.90
18613;DHT22;9436;52.152;21.032;2023-03-23T05:22:13;9.90;99.90
18613;DHT22;9436;52.152;21.032;2023-03-23T05:24:40;10.10;99.90
18613;DHT22;9436;52.152;21.032;2023-03-23T05:27:10;10.20;99.90
18613;DHT22;9436;52.152;21.032;2023-03-23T05:29:37;10.40;99.90
18613;DHT22;9436;52.152;21.032;2023-03-23T05:32:06;10.50;99.90
18613;DHT22;9436;52.152;21.032;2023-03-23T05:34:35;10.50;99.90
18613;DHT22;9436;52.152;21.032;2023-03-23T05:37:02;10.60;99.90
18613;DHT22;9436;52.152;21.032;2023-03-23T05:39:30;10.70;99.90
18613;DHT22;9436;52.152;21.032;2023-03-23T05:41:58;10.70;99.90
18613;DHT22;9436;52.152;21.032;2023-03-23T05:44:25;10.80;99.90
18613;DHT22;9436;52.152;21.032;2023-03-23T05:46:52;10.80;99.90
18613;DHT22;9436;52.152;21.032;2023-03-23T05:49:19;10.80;99.90
18613;DHT22;9436;52.152;21.032;2023-03-23T05:51:47;10.90;99.90
18613;DHT22;9436;52.152;21.032;2023-03-23T05:54:15;10.90;99.90
18613;DHT22;9436;52.152;21.032;2023-03-23T05:56:42;11.00;99.90
18613;DHT22;9436;52.152;21.032;2023-03-23T05:59:09;11.00;99.90
18613;DHT22;9436;52.152;21.032;2023-03-23T06:01:37;11.10;99.90
18613;DHT22;9436;52.152;21.032;2023-03-23T06:04:04;11.10;99.90
18613;DHT22;9436;52.152;21.032;2023-03-23T06:06:31;11.10;99.90
18613;DHT22;9436;52.152;21.032;2023-03-23T06:08:59;11.30;99.90
18613;DHT22;9436;52.152;21.032;2023-03-23T06:11:26;11.40;99.90
18613;DHT22;9436;52.152;21.032;2023-03-23T06:13:53;11.50;99.90
18613;DHT22;9436;52.152;21.032;2023-03-23T06:16:20;11.50;99.90
18613;DHT22;9436;52.152;21.032;2023-03-23T06:18:47;11.60;99.90
18613;DHT22;9436;52.152;21.032;2023-03-23T06:21:15;11.70;99.90
18613;DHT22;9436;52.152;21.032;2023-03-23T06:23:43;11.80;99.90
18613;DHT22;9436;52.152;21.032;2023-03-23T06:26:13;11.80;99.90
18613;DHT22;9436;52.152;21.032;2023-03-23T06:28:42;11.90;99.90
18613;DHT22;9436;52.152;21.032;2023-03-23T06:31:09;12.00;99.90
18613;DHT22;9436;52.152;21.032;2023-03-23T06:33:37;12.10;99.90
18613;DHT22;9436;52.152;21.032;2023-03-23T06:36:07;12.20;99.90
18613;DHT22;9436;52.152;21.032;2023-03-23T06:38:34;12.20;99.90
18613;DHT22;9436;52.152;21.032;2023-03-23T06:41:01;12.40;99.90
18613;DHT22;9436;52.152;21.032;2023-03-23T06:43:29;12.40;99.90
18613;DHT22;9436;52.152;21.032;2023-03-23T06:45:58;12.50;99.90
18613;DHT22;9436;52.152;21.032;2023-03-23T06:48:26;12.50;99.90
18613;DHT22;9436;52.152;21.032;2023-03-23T06:50:53;12.50;99.90
18613;DHT22;9436;52.152;21.032;2023-03-23T06:53:20;12.60;99.90
18613;DHT22;9436;52.152;21.032;2023-03-23T06:55:47;12.70;99.90
18613;DHT22;9436;52.152;21.032;2023-03-23T06:58:14;12.90;99.90
18613;DHT22;9436;52.152;21.032;2023-03-23T07:00:43;13.10;99.90
18613;DHT22;9436;52.152;21.032;2023-03-23T07:03:10;13.50;99.90
18613;DHT22;9436;52.152;21.032;2023-03-23T07:05:36;13.80;99.90
18613;DHT22;9436;52.152;21.032;2023-03-23T07:08:05;13.70;99.90
18613;DHT22;9436;52.152;21.032;2023-03-23T07:10:32;13.70;99.90
18613;DHT22;9436;52.152;21.032;2023-03-23T07:12:59;13.70;99.90
18613;DHT22;9436;52.152;21.032;2023-03-23T07:15:26;13.90;99.90
18613;DHT22;9436;52.152;21.032;2023-03-23T07:17:54;14.00;99.90
18613;DHT22;9436;52.152;21.032;2023-03-23T07:20:25;14.00;99.90
18613;DHT22;9436;52.152;21.032;2023-03-23T07:22:53;14.00;99.90
18613;DHT22;9436;52.152;21.032;2023-03-23T07:25:20;14.10;99.90
18613;DHT22;9436;52.152;21.032;2023-03-23T07:27:48;14.00;99.90
18613;DHT22;9436;52.152;21.032;2023-03-23T07:30:15;14.20;99.90
18613;DHT22;9436;52.152;21.032;2023-03-23T07:32:42;14.20;99.90
18613;DHT22;9436;52.152;21.032;2023-03-23T07:35:10;14.30;99.90
18613;DHT22;9436;52.152;21.032;2023-03-23T07:37:37;14.40;99.90
18613;DHT22;9436;52.152;21.032;2023-03-23T07:40:06;14.40;99.90
18613;DHT22;9436;52.152;21.032;2023-03-23T07:42:41;14.50;99.90
18613;DHT22;9436;52.152;21.032;2023-03-23T07:45:09;14.60;99.90
18613;DHT22;9436;52.152;21.032;2023-03-23T07:47:36;14.80;99.90
18613;DHT22;9436;52.152;21.032;2023-03-23T07:50:04;14.90;99.90
18613;DHT22;9436;52.152;21.032;2023-03-23T07:52:33;14.90;99.90
18613;DHT22;9436;52.152;21.032;2023-03-23T07:55:00;14.90;99.90
18613;DHT22;9436;52.152;21.032;2023-03-23T07:57:28;14.90;99.90
18613;DHT22;9436;52.152;21.032;2023-03-23T07:59:56;14.90;99.90
18613;DHT22;9436;52.152;21.032;2023-03-23T08:02:25;15.20;99.90
18613;DHT22;9436;52.152;21.032;2023-03-23T08:04:53;15.30;99.90
18613;DHT22;9436;52.152;21.032;2023-03-23T08:07:22;15.30;99.90
18613;DHT22;9436;52.152;21.032;2023-03-23T08:09:50;15.30;99.90
18613;DHT22;9436;52.152;21.032;2023-03-23T08:12:17;15.30;99.90
18613;DHT22;9436;52.152;21.032;2023-03-23T08:14:44;15.40;99.90
18613;DHT22;9436;52.152;21.032;2023-03-23T08:17:13;15.40;99.90
18613;DHT22;9436;52.152;21.032;2023-03-23T08:19:40;15.40;99.90
18613;DHT22;9436;52.152;21.032;2023-03-23T08:22:08;15.40;99.90
18613;DHT22;9436;52.152;21.032;2023-03-23T08:24:35;15.40;99.90
18613;DHT22;9436;52.152;21.032;2023-03-23T08:27:03;15.50;99.90
18613;DHT22;9436;52.152;21.032;2023-03-23T08:29:32;15.60;99.90
18613;DHT22;9436;52.152;21.032;2023-03-23T08:31:59;15.70;99.90
18613;DHT22;9436;52.152;21.032;2023-03-23T08:34:28;15.80;99.90
18613;DHT22;9436;52.152;21.032;2023-03-23T08:36:57;15.90;99.90
18613;DHT22;9436;52.152;21.032;2023-03-23T08:39:26;16.10;99.90
18613;DHT22;9436;52.152;21.032;2023-03-23T08:41:57;16.10;99.90
18613;DHT22;9436;52.152;21.032;2023-03-23T08:44:25;16.20;99.90
18613;DHT22;9436;52.152;21.032;2023-03-23T08:46:53;16.30;99.90
18613;DHT22;9436;52.152;21.032;2023-03-23T08:49:22;16.30;99.90
18613;DHT22;9436;52.152;21.032;2023-03-23T08:51:49;16.30;99.90
18613;DHT22;9436;52.152;21.032;2023-03-23T08:54:16;16.30;99.90
18613;DHT22;9436;52.152;21.032;2023-03-23T08:56:46;16.50;99.90
18613;DHT22;9436;52.152;21.032;2023-03-23T08:59:12;16.60;99.90
18613;DHT22;9436;52.152;21.032;2023-03-23T09:01:41;16.70;99.90
18613;DHT22;9436;52.152;21.032;2023-03-23T09:04:08;16.70;99.90
18613;DHT22;9436;52.152;21.032;2023-03-23T09:06:36;16.70;99.90
18613;DHT22;9436;52.152;21.032;2023-03-23T09:09:03;16.70;99.90
18613;DHT22;9436;52.152;21.032;2023-03-23T09:11:32;16.60;99.90
18613;DHT22;9436;52.152;21.032;2023-03-23T09:14:00;16.60;99.90
18613;DHT22;9436;52.152;21.032;2023-03-23T09:16:29;16.60;99.90
18613;DHT22;9436;52.152;21.032;2023-03-23T09:18:58;16.50;99.90
18613;DHT22;9436;52.152;21.032;2023-03-23T09:21:26;16.70;99.90
18613;DHT22;9436;52.152;21.032;2023-03-23T09:23:54;16.70;99.90
18613;DHT22;9436;52.152;21.032;2023-03-23T09:26:23;16.80;99.90
18613;DHT22;9436;52.152;21.032;2023-03-23T09:28:50;16.90;99.90
18613;DHT22;9436;52.152;21.032;2023-03-23T09:31:18;16.90;99.90
18613;DHT22;9436;52.152;21.032;2023-03-23T09:33:46;16.90;99.90
18613;DHT22;9436;52.152;21.032;2023-03-23T09:36:18;16.90;99.90
18613;DHT22;9436;52.152;21.032;2023-03-23T09:38:47;17.00;99.90
18613;DHT22;9436;52.152;21.032;2023-03-23T09:41:38;17.00;99.90
18613;DHT22;9436;52.152;21.032;2023-03-23T09:44:11;17.10;99.90
18613;DHT22;9436;52.152;21.032;2023-03-23T09:46:52;17.10;99.90
18613;DHT22;9436;52.152;21.032;2023-03-23T09:49:24;17.10;99.90
18613;DHT22;9436;52.152;21.032;2023-03-23T09:51:56;17.10;99.90
18613;DHT22;9436;52.152;21.032;2023-03-23T09:54:27;17.10;99.90
18613;DHT22;9436;52.152;21.032;2023-03-23T09:56:55;17.10;99.90
18613;DHT22;9436;52.152;21.032;2023-03-23T09:59:27;17.20;99.90
18613;DHT22;9436;52.152;21.032;2023-03-23T10:01:58;17.30;99.90
18613;DHT22;9436;52.152;21.032;2023-03-23T10:04:33;17.30;99.90
18613;DHT22;9436;52.152;21.032;2023-03-23T10:07:10;17.40;99.90
18613;DHT22;9436;52.152;21.032;2023-03-23T10:09:37;17.40;99.90
18613;DHT22;9436;52.152;21.032;2023-03-23T10:12:12;17.30;99.90
18613;DHT22;9436;52.152;21.032;2023-03-23T10:14:51;17.50;99.90
18613;DHT22;9436;52.152;21.032;2023-03-23T10:17:24;17.50;99.90
18613;DHT22;9436;52.152;21.032;2023-03-23T10:19:58;17.50;99.90
18613;DHT22;9436;52.152;21.032;2023-03-23T10:22:34;17.60;99.90
18613;DHT22;9436;52.152;21.032;2023-03-23T10:25:14;17.60;99.90
18613;DHT22;9436;52.152;21.032;2023-03-23T10:27:45;17.70;99.90
18613;DHT22;9436;52.152;21.032;2023-03-23T10:30:20;17.80;99.90
18613;DHT22;9436;52.152;21.032;2023-03-23T10:32:52;17.90;99.90
18613;DHT22;9436;52.152;21.032;2023-03-23T10:35:24;18.00;99.90
18613;DHT22;9436;52.152;21.032;2023-03-23T10:37:58;18.00;99.90
18613;DHT22;9436;52.152;21.032;2023-03-23T10:40:29;18.10;99.90
18613;DHT22;9436;52.152;21.032;2023-03-23T10:42:57;18.20;99.90
18613;DHT22;9436;52.152;21.032;2023-03-23T10:45:27;18.20;99.90
18613;DHT22;9436;52.152;21.032;2023-03-23T10:47:57;18.20;99.90
18613;DHT22;9436;52.152;21.032;2023-03-23T10:50:29;18.30;99.90
18613;DHT22;9436;52.152;21.032;2023-03-23T10:52:59;18.30;99.90
18613;DHT22;9436;52.152;21.032;2023-03-23T10:55:36;18.40;99.90
18613;DHT22;9436;52.152;21.032;2023-03-23T10:58:05;18.40;99.90
18613;DHT22;9436;52.152;21.032;2023-03-23T11:00:40;18.50;99.90
18613;DHT22;9436;52.152;21.032;2023-03-23T11:03:25;18.60;99.90
18613;DHT22;9436;52.152;21.032;2023-03-23T11:05:56;18.60;99.90
18613;DHT22;9436;52.152;21.032;2023-03-23T11:08:26;18.70;99.90
18613;DHT22;9436;52.152;21.032;2023-03-23T11:10:56;18.70;99.90
18613;DHT22;9436;52.152;21.032;2023-03-23T11:13:30;18.70;99.90
18613;DHT22;9436;52.152;21.032;2023-03-23T11:15:59;18.90;99.90
18613;DHT22;9436;52.152;21.032;2023-03-23T11:18:35;19.00;99.90
18613;DHT22;9436;52.152;21.032;2023-03-23T11:21:03;19.20;99.90
18613;DHT22;9436;52.152;21.032;2023-03-23T11:23:34;19.30;99.90
18613;DHT22;9436;52.152;21.032;2023-03-23T11:26:09;19.40;99.90
18613;DHT22;9436;52.152;21.032;2023-03-23T11:28:38;19.50;99.90
18613;DHT22;9436;52.152;21.032;2023-03-23T11:31:09;19.70;99.90
18613;DHT22;9436;52.152;21.032;2023-03-23T11:33:39;19.70;99.90
18613;DHT22;9436;52.152;21.032;2023-03-23T11:36:07;19.70;99.90
18613;DHT22;9436;52.152;21.032;2023-03-23T11:38:36;19.70;99.90
18613;DHT22;9436;52.152;21.032;2023-03-23T11:41:09;19.90;99.90
18613;DHT22;9436;52.152;21.032;2023-03-23T11:43:40;20.00;99.90
18613;DHT22;9436;52.152;21.032;2023-03-23T11:46:13;20.00;99.90
18613;DHT22;9436;52.152;21.032;2023-03-23T11:48:46;19.90;99.90
18613;DHT22;9436;52.152;21.032;2023-03-23T11:51:19;20.00;99.90
18613;DHT22;9436;52.152;21.032;2023-03-23T11:53:55;20.10;99.90
18613;DHT22;9436;52.152;21.032;2023-03-23T11:56:28;20.10;99.90
18613;DHT22;9436;52.152;21.032;2023-03-23T11:58:57;20.10;99.90
18613;DHT22;9436;52.152;21.032;2023-03-23T12:01:36;20.20;99.90
18613;DHT22;9436;52.152;21.032;2023-03-23T12:04:37;20.20;99.90
18613;DHT22;9436;52.152;21.032;2023-03-23T12:07:18;20.20;99.90
18613;DHT22;9436;52.152;21.032;2023-03-23T12:09:58;20.10;99.90
18613;DHT22;9436;52.152;21.032;2023-03-23T12:12:33;20.20;99.90
18613;DHT22;9436;52.152;21.032;2023-03-23T12:15:09;20.20;99.90
18613;DHT22;9436;52.152;21.032;2023-03-23T12:17:48;20.20;99.90
18613;DHT22;9436;52.152;21.032;2023-03-23T12:20:27;20.40;99.90
18613;DHT22;9436;52.152;21.032;2023-03-23T12:23:06;20.40;99.90
18613;DHT22;9436;52.152;21.032;2023-03-23T12:25:48;20.40;99.90
18613;DHT22;9436;52.152;21.032;2023-03-23T12:28:24;20.40;99.90
18613;DHT22;9436;52.152;21.032;2023-03-23T12:31:00;20.50;99.90
18613;DHT22;9436;52.152;21.032;2023-03-23T12:33:37;20.60;99.90
18613;DHT22;9436;52.152;21.032;2023-03-23T12:36:17;20.80;99.90
18613;DHT22;9436;52.152;21.032;2023-03-23T12:39:05;20.80;99.90
18613;DHT22;9436;52.152;21.032;2023-03-23T12:41:41;20.80;99.90
18613;DHT22;9436;52.152;21.032;2023-03-23T12:44:11;20.80;99.90
18613;DHT22;9436;52.152;21.032;2023-03-23T12:46:59;20.80;99.90
18613;DHT22;9436;52.152;21.032;2023-03-23T12:49:33;20.80;99.90
18613;DHT22;9436;52.152;21.032;2023-03-23T12:52:04;20.80;99.90
18613;DHT22;9436;52.152;21.032;2023-03-23T12:54:40;20.70;99.90
18613;DHT22;9436;52.152;21.032;2023-03-23T12:57:23;20.60;99.90
18613;DHT22;9436;52.152;21.032;2023-03-23T13:00:04;20.50;99.90
18613;DHT22;9436;52.152;21.032;2023-03-23T13:02:41;20.40;99.90
18613;DHT22;9436;52.152;21.032;2023-03-23T13:05:13;20.30;99.90
18613;DHT22;9436;52.152;21.032;2023-03-23T13:07:44;20.20;99.90
18613;DHT22;9436;52.152;21.032;2023-03-23T13:10:17;20.10;99.90
18613;DHT22;9436;52.152;21.032;2023-03-23T13:12:48;20.00;99.90
18613;DHT22;9436;52.152;21.032;2023-03-23T13:15:24;19.90;99.90
18613;DHT22;9436;52.152;21.032;2023-03-23T13:17:58;19.90;99.90
18613;DHT22;9436;52.152;21.032;2023-03-23T13:20:43;19.80;99.90
18613;DHT22;9436;52.152;21.032;2023-03-23T13:23:16;19.70;99.90
18613;DHT22;9436;52.152;21.032;2023-03-23T13:25:50;19.70;99.90
18613;DHT22;9436;52.152;21.032;2023-03-23T13:28:22;19.70;99.90
18613;DHT22;9436;52.152;21.032;2023-03-23T13:31:00;19.50;99.90
18613;DHT22;9436;52.152;21.032;2023-03-23T13:33:33;19.50;99.90
18613;DHT22;9436;52.152;21.032;2023-03-23T13:36:08;19.30;99.90
18613;DHT22;9436;52.152;21.032;2023-03-23T13:38:36;19.30;99.90
18613;DHT22;9436;52.152;21.032;2023-03-23T13:41:10;19.20;99.90
18613;DHT22;9436;52.152;21.032;2023-03-23T13:43:41;19.20;99.90
18613;DHT22;9436;52.152;21.032;2023-03-23T13:46:24;19.20;99.90
18613;DHT22;9436;52.152;21.032;2023-03-23T13:49:04;19.20;99.90
18613;DHT22;9436;52.152;21.032;2023-03-23T13:51:35;19.20;99.90
18613;DHT22;9436;52.152;21.032;2023-03-23T13:54:15;19.10;99.90
18613;DHT22;9436;52.152;21.032;2023-03-23T13:56:53;19.10;99.90
18613;DHT22;9436;52.152;21.032;2023-03-23T13:59:45;19.20;99.90
18613;DHT22;9436;52.152;21.032;2023-03-23T14:02:32;19.20;99.90
18613;DHT22;9436;52.152;21.032;2023-03-23T14:05:10;19.20;99.90
18613;DHT22;9436;52.152;21.032;2023-03-23T14:07:55;19.30;99.90
18613;DHT22;9436;52.152;21.032;2023-03-23T14:10:23;19.40;99.90
18613;DHT22;9436;52.152;21.032;2023-03-23T14:12:52;19.40;99.90
18613;DHT22;9436;52.152;21.032;2023-03-23T14:15:21;19.40;99.90
18613;DHT22;9436;52.152;21.032;2023-03-23T14:17:54;19.30;99.90
18613;DHT22;9436;52.152;21.032;2023-03-23T14:20:30;19.10;99.90
18613;DHT22;9436;52.152;21.032;2023-03-23T14:22:59;18.90;99.90
18613;DHT22;9436;52.152;21.032;2023-03-23T14:25:29;18.80;99.90
18613;DHT22;9436;52.152;21.032;2023-03-23T14:27:57;18.70;99.90
18613;DHT22;9436;52.152;21.032;2023-03-23T14:30:34;18.60;99.90
18613;DHT22;9436;52.152;21.032;2023-03-23T14:33:04;18.60;99.90
18613;DHT22;9436;52.152;21.032;2023-03-23T14:35:34;18.50;99.90
18613;DHT22;9436;52.152;21.032;2023-03-23T14:38:03;18.40;99.90
18613;DHT22;9436;52.152;21.032;2023-03-23T14:40:31;18.40;99.90
18613;DHT22;9436;52.152;21.032;2023-03-23T14:42:59;18.40;99.90
18613;DHT22;9436;52.152;21.032;2023-03-23T14:45:27;18.40;99.90
18613;DHT22;9436;52.152;21.032;2023-03-23T14:47:57;18.40;99.90
18613;DHT22;9436;52.152;21.032;2023-03-23T14:50:36;18.40;99.90
18613;DHT22;9436;52.152;21.032;2023-03-23T14:53:11;18.30;99.90
18613;DHT22;9436;52.152;21.032;2023-03-23T14:55:41;18.30;99.90
18613;DHT22;9436;52.152;21.032;2023-03-23T14:58:13;18.40;99.90
18613;DHT22;9436;52.152;21.032;2023-03-23T15:00:44;18.40;99.90
18613;DHT22;9436;52.152;21.032;2023-03-23T15:03:15;18.30;99.90
18613;DHT22;9436;52.152;21.032;2023-03-23T15:05:45;18.20;99.90
18613;DHT22;9436;52.152;21.032;2023-03-23T15:08:15;18.00;99.90
18613;DHT22;9436;52.152;21.032;2023-03-23T15:10:52;18.00;99.90
18613;DHT22;9436;52.152;21.032;2023-03-23T15:13:19;18.00;99.90
18613;DHT22;9436;52.152;21.032;2023-03-23T15:15:47;17.90;99.90
18613;DHT22;9436;52.152;21.032;2023-03-23T15:18:29;17.90;99.90
18613;DHT22;9436;52.152;21.032;2023-03-23T15:20:57;17.90;99.90
18613;DHT22;9436;52.152;21.032;2023-03-23T15:23:27;17.80;99.90
18613;DHT22;9436;52.152;21.032;2023-03-23T15:25:56;17.60;99.90
18613;DHT22;9436;52.152;21.032;2023-03-23T15:28:30;17.60;99.90
18613;DHT22;9436;52.152;21.032;2023-03-23T15:31:01;17.50;99.90
18613;DHT22;9436;52.152;21.032;2023-03-23T15:33:34;17.50;99.90
18613;DHT22;9436;52.152;21.032;2023-03-23T15:36:07;17.60;99.90
18613;DHT22;9436;52.152;21.032;2023-03-23T15:38:35;17.60;99.90
18613;DHT22;9436;52.152;21.032;2023-03-23T15:41:04;17.60;99.90
18613;DHT22;9436;52.152;21.032;2023-03-23T15:43:33;17.60;99.90
18613;DHT22;9436;52.152;21.032;2023-03-23T15:46:03;17.70;99.90
18613;DHT22;9436;52.152;21.032;2023-03-23T15:48:32;17.70;99.90
18613;DHT22;9436;52.152;21.032;2023-03-23T15:51:02;17.70;99.90
18613;DHT22;9436;52.152;21.032;2023-03-23T15:53:31;17.60;99.90
18613;DHT22;9436;52.152;21.032;2023-03-23T15:56:00;17.60;99.90
18613;DHT22;9436;52.152;21.032;2023-03-23T15:58:28;17.60;99.90